Decoded Metar for LEPP (PAMPLONA in SPAIN) (IATA:PNA) | Meteo·Mobile Aviation Weather
aviador You're here:

LEPP Decoded Metar

PAMPLONA in SPAIN
Report Time2019-03-22 14:00:00
UTC Time2019-03-22 14:18:43
Flight Rules vfr VFR
Wind200° at 03 kt
W.Decomp.*RWY 15: 1.9 kt HW 2.3 kt RCW
W.Rank200° ranks 17
Current wind is below 200° avg. (6.4)
Visibility9999 m
Phenomena:N/A
Clouds:N/A
Expected CloudBase > 7,600 ft AGL from Temp-Dew spread
CeilingNone
Temp18°C (ISA +6)
Dew Point-1°C (28% RH)
AAT14.8°C
QNH1027 hPa
Density Alt1,821 ft
Elevation1,506 ft
Report Wrong Elevation
Raw Report
METAR LEPP 221400Z 20003KT 120V280 CAVOK 18/M01 Q1027=

Extra information for LEPP:More info

Metar Taf Metar & Taf Last 4 Metars F.Rules Stats Wind Profile Meteogram Temp Stats Airport Information Weather charts Add Link Nearby VenuesMetar ALERT Operation Metar Decoded Social comments